SVW5C EDVK-EDHL
Flight info
| Callsign | SVW5C |
|---|---|
| Flight time | 0h 34m |
| Altitude | 26000 |
| Route | LUXUX P605 NOLGO |
| Aircraft | A319/M-SDE3FGHIRWY/LB1 |
Departure
| Time | 2026-05-04 12:49 |
|---|---|
| Airport | Kassel Airport (EDVK) |
Arrival
| Time | 2026-05-04 13:23 |
|---|---|
| Airport | Lübeck Blankensee Airport (EDHL) |
| Time | Latitude | Longitude | Altitude | Speed | Heading |
|---|---|---|---|---|---|
| 2026-05-04 12:38 | 51.41731 | 9.39690 | 864 ft | 0 kts | 276° |
| 2026-05-04 12:43 | 51.41732 | 9.39687 | 864 ft | 0 kts | 294° |
| 2026-05-04 12:43 | 51.41736 | 9.39687 | 864 ft | 1 kts | 332° |
| 2026-05-04 12:44 | 51.41745 | 9.39698 | 852 ft | 4 kts | 36° |
| 2026-05-04 12:44 | 51.41773 | 9.39744 | 860 ft | 8 kts | 53° |
| 2026-05-04 12:44 | 51.41827 | 9.39778 | 864 ft | 11 kts | 2° |
| 2026-05-04 12:44 | 51.41892 | 9.39735 | 860 ft | 13 kts | 281° |
| 2026-05-04 12:45 | 51.41901 | 9.39574 | 864 ft | 16 kts | 275° |
| 2026-05-04 12:45 | 51.41912 | 9.39374 | 864 ft | 20 kts | 275° |
| 2026-05-04 12:45 | 51.41925 | 9.39145 | 859 ft | 21 kts | 275° |
| 2026-05-04 12:45 | 51.41937 | 9.38905 | 858 ft | 21 kts | 275° |
| 2026-05-04 12:46 | 51.41947 | 9.38713 | 864 ft | 9 kts | 275° |
| 2026-05-04 12:46 | 51.41953 | 9.38616 | 853 ft | 10 kts | 276° |
| 2026-05-04 12:46 | 51.41961 | 9.38481 | 864 ft | 14 kts | 275° |
| 2026-05-04 12:46 | 51.41970 | 9.38305 | 864 ft | 18 kts | 275° |
| 2026-05-04 12:47 | 51.41981 | 9.38091 | 856 ft | 21 kts | 275° |
| 2026-05-04 12:47 | 51.41995 | 9.37843 | 864 ft | 24 kts | 275° |
| 2026-05-04 12:47 | 51.42009 | 9.37564 | 864 ft | 26 kts | 275° |
| 2026-05-04 12:47 | 51.42043 | 9.37429 | 860 ft | 12 kts | 341° |
| 2026-05-04 12:48 | 51.42119 | 9.37433 | 864 ft | 11 kts | 5° |
| 2026-05-04 12:48 | 51.42173 | 9.37487 | 864 ft | 9 kts | 84° |
| 2026-05-04 12:48 | 51.42173 | 9.37494 | 867 ft | 0 kts | 95° |
| 2026-05-04 12:48 | 51.42171 | 9.37520 | 863 ft | 9 kts | 95° |
| 2026-05-04 12:49 | 51.42140 | 9.38069 | 864 ft | 99 kts | 95° |
| 2026-05-04 12:49 | 51.42067 | 9.39530 | 1165 ft | 147 kts | 94° |
| 2026-05-04 12:49 | 51.41980 | 9.41224 | 2007 ft | 156 kts | 98° |
| 2026-05-04 12:49 | 51.41876 | 9.43047 | 2748 ft | 175 kts | 98° |
| 2026-05-04 12:50 | 51.41756 | 9.45116 | 3429 ft | 198 kts | 97° |
| 2026-05-04 12:50 | 51.41625 | 9.47437 | 4088 ft | 220 kts | 96° |
| 2026-05-04 12:50 | 51.41484 | 9.49964 | 4961 ft | 232 kts | 96° |
| 2026-05-04 12:50 | 51.41345 | 9.52520 | 6093 ft | 236 kts | 97° |
| 2026-05-04 12:51 | 51.41404 | 9.55172 | 7232 ft | 242 kts | 80° |
| 2026-05-04 12:51 | 51.41987 | 9.57742 | 8264 ft | 256 kts | 61° |
| 2026-05-04 12:51 | 51.43144 | 9.60086 | 9017 ft | 282 kts | 45° |
| 2026-05-04 12:51 | 51.44636 | 9.62259 | 9964 ft | 296 kts | 35° |
| 2026-05-04 12:52 | 51.46475 | 9.63974 | 10659 ft | 318 kts | 23° |
| 2026-05-04 12:52 | 51.48565 | 9.65514 | 11254 ft | 343 kts | 23° |
| 2026-05-04 12:52 | 51.50812 | 9.67176 | 11758 ft | 368 kts | 23° |
| 2026-05-04 12:52 | 51.53209 | 9.68956 | 12175 ft | 392 kts | 24° |
| 2026-05-04 12:53 | 51.55754 | 9.70859 | 12622 ft | 411 kts | 24° |
| 2026-05-04 12:53 | 51.58371 | 9.72831 | 13383 ft | 419 kts | 24° |
| 2026-05-04 12:53 | 51.61034 | 9.74818 | 14184 ft | 425 kts | 22° |
| 2026-05-04 12:53 | 51.63807 | 9.76338 | 14902 ft | 429 kts | 13° |
| 2026-05-04 12:54 | 51.66760 | 9.77161 | 15641 ft | 432 kts | 4° |
| 2026-05-04 12:54 | 51.69768 | 9.77712 | 16333 ft | 438 kts | 4° |
| 2026-05-04 12:54 | 51.72812 | 9.78279 | 17002 ft | 443 kts | 4° |
| 2026-05-04 12:54 | 51.75893 | 9.78861 | 17659 ft | 448 kts | 4° |
| 2026-05-04 12:55 | 51.79008 | 9.79457 | 18276 ft | 453 kts | 4° |
| 2026-05-04 12:55 | 51.82154 | 9.80063 | 18811 ft | 458 kts | 4° |
| 2026-05-04 12:55 | 51.85336 | 9.80676 | 19364 ft | 461 kts | 4° |
| 2026-05-04 12:55 | 51.88536 | 9.81290 | 19927 ft | 465 kts | 4° |
| 2026-05-04 12:56 | 51.91764 | 9.81914 | 20440 ft | 469 kts | 4° |
| 2026-05-04 12:56 | 51.95018 | 9.82546 | 20951 ft | 473 kts | 4° |
| 2026-05-04 12:56 | 51.98296 | 9.83189 | 21461 ft | 476 kts | 4° |
| 2026-05-04 12:56 | 52.01596 | 9.83835 | 21934 ft | 479 kts | 4° |
| 2026-05-04 12:57 | 52.04879 | 9.84474 | 22382 ft | 482 kts | 3° |
| 2026-05-04 12:57 | 52.08217 | 9.85123 | 22837 ft | 486 kts | 3° |
| 2026-05-04 12:57 | 52.11587 | 9.85779 | 23363 ft | 489 kts | 3° |
| 2026-05-04 12:57 | 52.14980 | 9.86441 | 23744 ft | 493 kts | 3° |
| 2026-05-04 12:58 | 52.18401 | 9.87115 | 24083 ft | 497 kts | 3° |
| 2026-05-04 12:58 | 52.21846 | 9.87792 | 24440 ft | 500 kts | 2° |
| 2026-05-04 12:58 | 52.25301 | 9.88599 | 24763 ft | 505 kts | 7° |
| 2026-05-04 12:58 | 52.28724 | 9.90005 | 25081 ft | 509 kts | 11° |
| 2026-05-04 12:59 | 52.32153 | 9.91518 | 25392 ft | 512 kts | 11° |
| 2026-05-04 12:59 | 52.35592 | 9.93035 | 25817 ft | 511 kts | 11° |
| 2026-05-04 12:59 | 52.39017 | 9.94544 | 25951 ft | 509 kts | 11° |
| 2026-05-04 12:59 | 52.42393 | 9.96033 | 25980 ft | 507 kts | 11° |
| 2026-05-04 13:00 | 52.45796 | 9.97539 | 25975 ft | 506 kts | 11° |
| 2026-05-04 13:00 | 52.49193 | 9.99047 | 25977 ft | 506 kts | 11° |
| 2026-05-04 13:00 | 52.52588 | 10.00555 | 25971 ft | 505 kts | 11° |
| 2026-05-04 13:00 | 52.55982 | 10.02058 | 25971 ft | 505 kts | 11° |
| 2026-05-04 13:01 | 52.59373 | 10.03558 | 25990 ft | 505 kts | 11° |
| 2026-05-04 13:01 | 52.62766 | 10.05062 | 25969 ft | 504 kts | 11° |
| 2026-05-04 13:01 | 52.66148 | 10.06570 | 25973 ft | 504 kts | 11° |
| 2026-05-04 13:01 | 52.69534 | 10.08090 | 25968 ft | 504 kts | 11° |
| 2026-05-04 13:02 | 52.72912 | 10.09611 | 25963 ft | 504 kts | 11° |
| 2026-05-04 13:02 | 52.76304 | 10.11038 | 25959 ft | 501 kts | 7° |
| 2026-05-04 13:02 | 52.79737 | 10.11804 | 25960 ft | 495 kts | 359° |
| 2026-05-04 13:02 | 52.83165 | 10.11960 | 25991 ft | 493 kts | 355° |
| 2026-05-04 13:03 | 52.86593 | 10.12060 | 25989 ft | 492 kts | 355° |
| 2026-05-04 13:03 | 52.89939 | 10.12170 | 25819 ft | 477 kts | 355° |
| 2026-05-04 13:03 | 52.93174 | 10.12296 | 25572 ft | 455 kts | 355° |
| 2026-05-04 13:03 | 52.96270 | 10.12421 | 25330 ft | 436 kts | 355° |
| 2026-05-04 13:04 | 52.99242 | 10.12534 | 25091 ft | 420 kts | 355° |
| 2026-05-04 13:04 | 53.02121 | 10.12635 | 24934 ft | 404 kts | 355° |
| 2026-05-04 13:04 | 53.04884 | 10.12724 | 24763 ft | 391 kts | 354° |
| 2026-05-04 13:04 | 53.07578 | 10.12805 | 24378 ft | 384 kts | 354° |
| 2026-05-04 13:05 | 53.10239 | 10.12882 | 23907 ft | 381 kts | 354° |
| 2026-05-04 13:05 | 53.12873 | 10.12957 | 23403 ft | 378 kts | 354° |
| 2026-05-04 13:05 | 53.15497 | 10.13035 | 22860 ft | 375 kts | 355° |
| 2026-05-04 13:05 | 53.18069 | 10.13117 | 22423 ft | 373 kts | 355° |
| 2026-05-04 13:06 | 53.20682 | 10.13206 | 21923 ft | 370 kts | 355° |
| 2026-05-04 13:06 | 53.23210 | 10.13296 | 21441 ft | 367 kts | 355° |
| 2026-05-04 13:06 | 53.25753 | 10.13386 | 20971 ft | 364 kts | 355° |
| 2026-05-04 13:06 | 53.28277 | 10.13472 | 20511 ft | 361 kts | 355° |
| 2026-05-04 13:07 | 53.30776 | 10.13556 | 20061 ft | 358 kts | 355° |
| 2026-05-04 13:07 | 53.33260 | 10.13639 | 19635 ft | 355 kts | 355° |
| 2026-05-04 13:07 | 53.35722 | 10.13746 | 19199 ft | 354 kts | 358° |
| 2026-05-04 13:07 | 53.38151 | 10.14588 | 18787 ft | 360 kts | 15° |
| 2026-05-04 13:08 | 53.40384 | 10.16521 | 18383 ft | 364 kts | 32° |
| 2026-05-04 13:08 | 53.42243 | 10.19383 | 17792 ft | 363 kts | 49° |
| 2026-05-04 13:08 | 53.43784 | 10.22705 | 17069 ft | 359 kts | 51° |
| 2026-05-04 13:08 | 53.45296 | 10.26021 | 16400 ft | 354 kts | 51° |
| 2026-05-04 13:09 | 53.46781 | 10.29287 | 15758 ft | 350 kts | 51° |
| 2026-05-04 13:09 | 53.48246 | 10.32508 | 15131 ft | 345 kts | 51° |
| 2026-05-04 13:09 | 53.49674 | 10.35646 | 14550 ft | 340 kts | 51° |
| 2026-05-04 13:09 | 53.51098 | 10.38782 | 13949 ft | 335 kts | 51° |
| 2026-05-04 13:10 | 53.52503 | 10.41877 | 13304 ft | 331 kts | 51° |
| 2026-05-04 13:10 | 53.53889 | 10.44928 | 12649 ft | 328 kts | 51° |
| 2026-05-04 13:10 | 53.55274 | 10.47980 | 12227 ft | 327 kts | 51° |
| 2026-05-04 13:10 | 53.56645 | 10.51003 | 11831 ft | 324 kts | 51° |
| 2026-05-04 13:11 | 53.58007 | 10.54010 | 11447 ft | 321 kts | 51° |
| 2026-05-04 13:11 | 53.59353 | 10.56989 | 11049 ft | 319 kts | 51° |
| 2026-05-04 13:11 | 53.60689 | 10.59951 | 10663 ft | 316 kts | 51° |
| 2026-05-04 13:11 | 53.62017 | 10.62892 | 10269 ft | 314 kts | 51° |
| 2026-05-04 13:12 | 53.63336 | 10.65813 | 9865 ft | 312 kts | 51° |
| 2026-05-04 13:12 | 53.64570 | 10.68805 | 9425 ft | 310 kts | 59° |
| 2026-05-04 13:12 | 53.65627 | 10.71899 | 8981 ft | 308 kts | 59° |
| 2026-05-04 13:12 | 53.66696 | 10.75012 | 8531 ft | 305 kts | 59° |
| 2026-05-04 13:13 | 53.67754 | 10.78092 | 8093 ft | 302 kts | 59° |
| 2026-05-04 13:13 | 53.68804 | 10.81146 | 7642 ft | 300 kts | 59° |
| 2026-05-04 13:13 | 53.69844 | 10.84179 | 7206 ft | 297 kts | 59° |
| 2026-05-04 13:13 | 53.70875 | 10.87182 | 6754 ft | 294 kts | 59° |
| 2026-05-04 13:14 | 53.71899 | 10.90171 | 6317 ft | 292 kts | 59° |
| 2026-05-04 13:14 | 53.72882 | 10.93040 | 6159 ft | 271 kts | 58° |
| 2026-05-04 13:14 | 53.73795 | 10.95713 | 5892 ft | 256 kts | 58° |
| 2026-05-04 13:14 | 53.74661 | 10.98251 | 5432 ft | 251 kts | 58° |
| 2026-05-04 13:15 | 53.75535 | 11.00816 | 5045 ft | 252 kts | 58° |
| 2026-05-04 13:15 | 53.76403 | 11.03365 | 4784 ft | 249 kts | 58° |
| 2026-05-04 13:15 | 53.77267 | 11.05898 | 4648 ft | 248 kts | 58° |
| 2026-05-04 13:15 | 53.78139 | 11.08416 | 4531 ft | 248 kts | 55° |
| 2026-05-04 13:16 | 53.79352 | 11.10400 | 4421 ft | 241 kts | 27° |
| 2026-05-04 13:16 | 53.80913 | 11.11302 | 4249 ft | 237 kts | 3° |
| 2026-05-04 13:16 | 53.82514 | 11.11026 | 3958 ft | 228 kts | 339° |
| 2026-05-04 13:16 | 53.83989 | 11.10207 | 3786 ft | 220 kts | 339° |
| 2026-05-04 13:17 | 53.85423 | 11.09386 | 3631 ft | 213 kts | 333° |
| 2026-05-04 13:17 | 53.86493 | 11.07838 | 3523 ft | 200 kts | 300° |
| 2026-05-04 13:17 | 53.86850 | 11.05615 | 3424 ft | 197 kts | 268° |
| 2026-05-04 13:17 | 53.86539 | 11.03405 | 3328 ft | 187 kts | 253° |
| 2026-05-04 13:18 | 53.86148 | 11.01373 | 3209 ft | 181 kts | 253° |
| 2026-05-04 13:18 | 53.85765 | 10.99364 | 3139 ft | 178 kts | 252° |
| 2026-05-04 13:18 | 53.85387 | 10.97373 | 2988 ft | 177 kts | 253° |
| 2026-05-04 13:18 | 53.85013 | 10.95399 | 2781 ft | 174 kts | 253° |
| 2026-05-04 13:19 | 53.84669 | 10.93593 | 2578 ft | 147 kts | 253° |
| 2026-05-04 13:19 | 53.84380 | 10.92071 | 2390 ft | 127 kts | 255° |
| 2026-05-04 13:19 | 53.84124 | 10.90725 | 2232 ft | 115 kts | 253° |
| 2026-05-04 13:19 | 53.83884 | 10.89458 | 2087 ft | 111 kts | 253° |
| 2026-05-04 13:20 | 53.83647 | 10.88214 | 1931 ft | 111 kts | 254° |
| 2026-05-04 13:20 | 53.83412 | 10.86977 | 1775 ft | 111 kts | 253° |
| 2026-05-04 13:20 | 53.83176 | 10.85742 | 1634 ft | 110 kts | 252° |
| 2026-05-04 13:20 | 53.82943 | 10.84520 | 1491 ft | 108 kts | 252° |
| 2026-05-04 13:21 | 53.82712 | 10.83306 | 1344 ft | 109 kts | 256° |
| 2026-05-04 13:21 | 53.82477 | 10.82077 | 1189 ft | 111 kts | 254° |
| 2026-05-04 13:21 | 53.82242 | 10.80851 | 1047 ft | 109 kts | 253° |
| 2026-05-04 13:21 | 53.82010 | 10.79632 | 865 ft | 110 kts | 254° |
| 2026-05-04 13:22 | 53.81775 | 10.78405 | 754 ft | 109 kts | 252° |
| 2026-05-04 13:22 | 53.81540 | 10.77182 | 588 ft | 111 kts | 253° |
| 2026-05-04 13:22 | 53.81302 | 10.75957 | 447 ft | 113 kts | 252° |
| 2026-05-04 13:22 | 53.81063 | 10.74708 | 311 ft | 112 kts | 254° |
| 2026-05-04 13:23 | 53.80827 | 10.73474 | 123 ft | 108 kts | 254° |
| 2026-05-04 13:23 | 53.80611 | 10.72336 | 58 ft | 89 kts | 252° |
| 2026-05-04 13:23 | 53.80478 | 10.71627 | 66 ft | 41 kts | 252° |
| 2026-05-04 13:23 | 53.80421 | 10.71324 | 66 ft | 17 kts | 252° |
| 2026-05-04 13:24 | 53.80369 | 10.71058 | 58 ft | 30 kts | 251° |
| 2026-05-04 13:24 | 53.80303 | 10.70716 | 60 ft | 31 kts | 252° |
| 2026-05-04 13:24 | 53.80382 | 10.70520 | 56 ft | 23 kts | 326° |
| 2026-05-04 13:25 | 53.80445 | 10.70350 | 57 ft | 4 kts | 316° |
| 2026-05-04 13:25 | 53.80479 | 10.70315 | 59 ft | 3 kts | 325° |
| 2026-05-04 13:25 | 53.80485 | 10.70307 | 59 ft | 0 kts | 325° |